createdAt,value
2017-11-19T00:00:53.647Z,14.30
2017-11-19T00:03:23.457Z,15.27
2017-11-19T00:05:53.119Z,23.27
2017-11-19T00:08:23.445Z,14.17
2017-11-19T00:10:53.019Z,29.40
2017-11-19T00:13:22.903Z,14.70
2017-11-19T00:15:52.936Z,15.83
2017-11-19T00:18:23.063Z,8.93
2017-11-19T00:20:53.037Z,11.20
2017-11-19T00:23:22.989Z,12.97
2017-11-19T00:29:26.131Z,14.00
2017-11-19T00:31:56.094Z,17.27
2017-11-19T00:34:26.202Z,13.03
2017-11-19T00:36:56.310Z,14.90
2017-11-19T00:39:26.346Z,12.17
2017-11-19T00:41:58.123Z,16.93
2017-11-19T00:44:27.711Z,12.87
2017-11-19T00:46:57.277Z,16.43
2017-11-19T00:49:28.892Z,13.97
2017-11-19T00:51:58.439Z,11.00
2017-11-19T00:54:27.983Z,10.40
2017-11-19T00:56:57.815Z,9.57
2017-11-19T00:59:27.907Z,8.57
2017-11-19T01:01:58.094Z,12.63
2017-11-19T01:04:28.786Z,14.30
2017-11-19T01:06:58.507Z,8.50
2017-11-19T01:09:28.084Z,8.97
2017-11-19T01:11:58.307Z,7.70
2017-11-19T01:14:28.319Z,8.90
2017-11-19T01:16:58.355Z,8.37
2017-11-19T01:19:28.442Z,10.60
2017-11-19T01:21:58.429Z,8.97
2017-11-19T01:24:28.733Z,9.67
2017-11-19T01:26:58.740Z,7.67
2017-11-19T01:29:28.603Z,6.77
2017-11-19T01:31:58.651Z,9.47
2017-11-19T01:34:28.759Z,8.73
2017-11-19T01:36:58.850Z,7.40
2017-11-19T01:39:28.911Z,8.70
2017-11-19T01:41:58.904Z,9.10
2017-11-19T01:44:29.110Z,13.40
2017-11-19T01:46:59.092Z,6.47
2017-11-19T01:49:29.203Z,7.90
2017-11-19T01:51:59.240Z,5.70
2017-11-19T01:54:29.301Z,6.80
2017-11-19T01:56:59.410Z,8.40
2017-11-19T01:59:29.363Z,7.27
2017-11-19T02:01:59.373Z,8.37
2017-11-19T02:04:29.471Z,6.97
2017-11-19T02:06:59.475Z,9.63
2017-11-19T02:09:29.517Z,7.67
2017-11-19T02:11:59.960Z,7.30
2017-11-19T02:14:29.651Z,7.20
2017-11-19T02:16:59.676Z,6.50
2017-11-19T02:19:29.806Z,9.67
2017-11-19T02:21:59.977Z,8.43
2017-11-19T02:24:30.070Z,8.13
2017-11-19T02:26:59.972Z,7.00
2017-11-19T02:29:30.087Z,7.07
2017-11-19T02:32:00.122Z,6.63
2017-11-19T02:34:30.207Z,8.23
2017-11-19T02:37:00.257Z,8.10
2017-11-19T02:39:30.367Z,7.03
2017-11-19T02:42:00.345Z,6.33
2017-11-19T02:44:30.451Z,6.90
2017-11-19T02:47:00.548Z,8.53
2017-11-19T02:49:30.616Z,8.87
2017-11-19T02:52:00.644Z,10.33
2017-11-19T02:54:30.909Z,8.10
2017-11-19T02:57:01.029Z,8.27
2017-11-19T02:59:30.895Z,8.13
2017-11-19T03:02:00.956Z,7.80
2017-11-19T03:04:31.035Z,6.87
2017-11-19T03:07:01.203Z,9.30
2017-11-19T03:09:31.177Z,6.73
2017-11-19T03:12:01.236Z,7.50
2017-11-19T03:14:31.398Z,6.30
2017-11-19T03:17:01.430Z,8.47
2017-11-19T03:19:31.433Z,6.47
2017-11-19T03:22:01.577Z,8.30
2017-11-19T03:24:31.693Z,6.67
2017-11-19T03:27:01.675Z,8.27
2017-11-19T03:29:31.716Z,8.00
2017-11-19T03:32:01.853Z,9.90
2017-11-19T03:34:32.778Z,10.00
2017-11-19T03:37:02.323Z,9.83
2017-11-19T03:39:32.071Z,8.77
2017-11-19T03:42:02.100Z,8.90
2017-11-19T03:44:32.147Z,6.70
2017-11-19T03:47:02.132Z,6.63
2017-11-19T03:49:32.265Z,8.97
2017-11-19T03:52:02.267Z,6.77
2017-11-19T03:54:32.315Z,7.17
2017-11-19T03:57:02.401Z,7.03
2017-11-19T03:59:32.632Z,6.20
2017-11-19T04:02:03.110Z,6.23
2017-11-19T04:04:32.655Z,8.13
2017-11-19T04:07:03.095Z,7.10
2017-11-19T04:09:32.653Z,6.80
2017-11-19T04:12:02.716Z,7.03
2017-11-19T04:14:32.863Z,6.67
2017-11-19T04:17:02.851Z,6.77
2017-11-19T04:19:32.868Z,11.20
2017-11-19T04:22:03.015Z,12.07
2017-11-19T04:24:33.044Z,9.60
2017-11-19T04:27:03.068Z,9.10
2017-11-19T04:29:33.161Z,9.37
2017-11-19T04:32:03.452Z,9.97
2017-11-19T04:34:33.278Z,10.20
2017-11-19T04:37:03.317Z,7.37
2017-11-19T04:39:33.334Z,8.40
2017-11-19T04:42:03.432Z,6.87
2017-11-19T04:44:33.469Z,7.63
2017-11-19T04:47:03.517Z,7.63
2017-11-19T04:49:33.578Z,5.50
2017-11-19T04:52:03.628Z,6.80
2017-11-19T04:54:33.640Z,6.13
2017-11-19T04:57:03.863Z,7.10
2017-11-19T04:59:33.987Z,5.47
2017-11-19T05:02:04.006Z,6.20
2017-11-19T05:04:34.121Z,5.43
2017-11-19T05:07:04.157Z,6.03
2017-11-19T05:09:34.268Z,6.47
2017-11-19T05:12:04.304Z,6.83
2017-11-19T05:14:34.396Z,5.17
2017-11-19T05:17:04.487Z,6.23
2017-11-19T05:19:34.530Z,9.40
2017-11-19T05:22:04.548Z,7.43
2017-11-19T05:24:34.671Z,5.30
2017-11-19T05:27:04.716Z,6.43
2017-11-19T05:29:34.876Z,12.57
2017-11-19T05:32:04.822Z,8.73
2017-11-19T05:34:34.847Z,8.57
2017-11-19T05:37:04.986Z,8.37
2017-11-19T05:39:34.987Z,7.13
2017-11-19T05:42:04.947Z,9.77
2017-11-19T05:44:35.050Z,6.27
2017-11-19T05:47:05.180Z,5.67
2017-11-19T05:49:35.131Z,7.67
2017-11-19T05:52:05.258Z,4.20
2017-11-19T05:54:35.388Z,10.37
2017-11-19T05:57:05.435Z,7.17
2017-11-19T05:59:35.425Z,4.70
2017-11-19T06:02:05.526Z,6.40
2017-11-19T06:04:35.536Z,7.37
2017-11-19T06:07:05.757Z,7.70
2017-11-19T06:09:35.676Z,7.57
2017-11-19T06:12:05.695Z,8.23
2017-11-19T06:14:35.889Z,8.30
2017-11-19T06:17:05.830Z,8.10
2017-11-19T06:19:35.847Z,7.10
2017-11-19T06:22:06.004Z,6.80
2017-11-19T06:24:36.430Z,10.80
2017-11-19T06:27:06.277Z,6.50
2017-11-19T06:29:36.222Z,7.87
2017-11-19T06:32:06.240Z,5.53
2017-11-19T06:34:37.075Z,7.67
2017-11-19T06:37:06.650Z,9.13
2017-11-19T06:39:36.504Z,8.70
2017-11-19T06:42:06.637Z,12.10
2017-11-19T06:44:37.101Z,8.00
2017-11-19T06:47:06.723Z,9.07
2017-11-19T06:49:36.686Z,8.23
2017-11-19T06:52:06.801Z,9.63
2017-11-19T06:54:37.044Z,6.70
2017-11-19T06:57:06.840Z,7.73
2017-11-19T06:59:36.856Z,7.00
2017-11-19T07:02:07.153Z,8.00
2017-11-19T07:04:37.028Z,9.93
2017-11-19T07:07:07.051Z,9.97
2017-11-19T07:09:37.130Z,9.33
2017-11-19T07:12:07.182Z,8.60
2017-11-19T07:14:37.301Z,9.90
2017-11-19T07:17:07.330Z,11.27
2017-11-19T07:19:37.320Z,11.27
2017-11-19T07:22:07.445Z,9.03
2017-11-19T07:24:37.433Z,7.80
2017-11-19T07:27:07.560Z,7.17
2017-11-19T07:29:37.601Z,5.63
2017-11-19T07:32:07.787Z,8.97
2017-11-19T07:34:37.735Z,10.03
2017-11-19T07:37:07.860Z,7.40
2017-11-19T07:39:38.485Z,10.93
2017-11-19T07:42:08.044Z,6.03
2017-11-19T07:44:38.011Z,7.23
2017-11-19T07:47:08.028Z,6.13
2017-11-19T07:49:38.120Z,6.30
2017-11-19T07:52:08.203Z,6.50
2017-11-19T07:54:38.344Z,6.20
2017-11-19T07:57:08.332Z,4.93
2017-11-19T07:59:38.451Z,5.13
2017-11-19T08:02:08.456Z,6.20
2017-11-19T08:04:38.451Z,7.17
2017-11-19T08:07:08.569Z,7.30
2017-11-19T08:09:38.610Z,5.73
2017-11-19T08:12:08.667Z,6.33
2017-11-19T08:14:38.719Z,6.53
2017-11-19T08:17:08.820Z,5.70
2017-11-19T08:19:38.899Z,9.73
2017-11-19T08:22:09.521Z,6.27
2017-11-19T08:24:39.058Z,7.63
2017-11-19T08:27:09.042Z,5.60
2017-11-19T08:29:39.061Z,7.80
2017-11-19T08:32:09.196Z,5.53
2017-11-19T08:34:39.321Z,5.70
2017-11-19T08:37:09.698Z,8.47
2017-11-19T08:39:39.346Z,8.33
2017-11-19T08:42:09.363Z,7.97
2017-11-19T08:44:39.580Z,7.43
2017-11-19T08:47:09.569Z,6.33
2017-11-19T08:49:39.495Z,7.87
2017-11-19T08:52:09.622Z,4.93
2017-11-19T08:54:39.636Z,6.53
2017-11-19T08:57:09.637Z,8.17
2017-11-19T08:59:39.785Z,7.17
2017-11-19T09:02:09.788Z,10.80
2017-11-19T09:04:39.891Z,9.17
2017-11-19T09:07:10.051Z,6.10
2017-11-19T09:09:40.019Z,5.63
2017-11-19T09:12:10.064Z,5.00
2017-11-19T09:14:40.282Z,4.60
2017-11-19T09:17:10.281Z,15.97
2017-11-19T09:19:40.313Z,17.07
2017-11-19T09:22:10.522Z,8.60
2017-11-19T09:24:40.675Z,6.93
2017-11-19T09:27:10.702Z,5.77
2017-11-19T09:29:40.744Z,6.07
2017-11-19T09:32:10.899Z,10.10
2017-11-19T09:34:40.940Z,10.03
2017-11-19T09:37:10.896Z,5.93
2017-11-19T09:39:41.153Z,8.00
2017-11-19T09:42:11.212Z,11.20
2017-11-19T09:44:41.134Z,9.70
2017-11-19T09:47:11.258Z,7.90
2017-11-19T09:49:41.173Z,8.90
2017-11-19T09:52:11.264Z,15.37
2017-11-19T09:54:41.374Z,5.07
2017-11-19T09:57:11.396Z,8.47
2017-11-19T09:59:41.369Z,6.27
2017-11-19T10:02:11.404Z,11.70
2017-11-19T10:04:41.560Z,8.50
2017-11-19T10:07:11.559Z,4.47
2017-11-19T10:09:41.684Z,13.30
2017-11-19T10:12:11.652Z,8.00
2017-11-19T10:14:41.722Z,10.37
2017-11-19T10:17:11.840Z,8.37
2017-11-19T10:19:41.832Z,7.13
2017-11-19T10:22:11.880Z,9.13
2017-11-19T10:24:41.961Z,6.70
2017-11-19T10:27:12.010Z,10.30
2017-11-19T10:29:42.157Z,10.73
2017-11-19T10:32:12.219Z,9.03
2017-11-19T10:34:42.463Z,10.07
2017-11-19T10:37:12.449Z,9.40
2017-11-19T10:39:42.436Z,7.27
2017-11-19T10:42:12.737Z,18.40
2017-11-19T10:47:43.934Z,10.17
2017-11-19T10:50:14.159Z,10.63
2017-11-19T10:52:44.178Z,5.93
2017-11-19T10:55:17.756Z,15.37
2017-11-19T10:57:48.012Z,7.43
2017-11-19T11:00:18.124Z,12.77
2017-11-19T11:02:48.008Z,9.10
2017-11-19T11:05:18.222Z,9.10
2017-11-19T11:07:48.129Z,13.20
2017-11-19T11:10:18.144Z,7.37
2017-11-19T11:12:49.008Z,10.70
2017-11-19T11:15:19.198Z,13.77
2017-11-19T11:17:48.859Z,10.03
2017-11-19T11:20:18.396Z,9.07
2017-11-19T11:22:49.072Z,11.03
2017-11-19T11:25:18.628Z,6.53
2017-11-19T11:27:48.930Z,13.23
2017-11-19T11:30:19.383Z,17.30
2017-11-19T11:32:49.248Z,28.40
2017-11-19T11:35:18.902Z,13.57
2017-11-19T11:37:48.809Z,12.13
2017-11-19T11:40:18.903Z,11.77
2017-11-19T11:42:48.913Z,7.77
2017-11-19T11:45:18.946Z,9.67
2017-11-19T11:47:48.955Z,16.37
2017-11-19T11:50:19.060Z,12.80
2017-11-19T11:52:49.307Z,14.37
2017-11-19T11:55:19.192Z,15.90
2017-11-19T11:57:49.338Z,17.20
2017-11-19T12:00:19.420Z,14.43
2017-11-19T12:02:49.472Z,9.43
2017-11-19T12:05:20.273Z,11.37
2017-11-19T12:07:49.828Z,17.70
2017-11-19T12:10:19.610Z,23.33
2017-11-19T12:12:49.649Z,17.57
2017-11-19T12:15:19.813Z,11.17
2017-11-19T12:17:49.836Z,16.93
2017-11-19T12:20:19.804Z,19.20
2017-11-19T12:22:49.872Z,23.27
2017-11-19T12:25:19.938Z,18.63
2017-11-19T12:27:50.159Z,30.17
2017-11-19T12:30:20.089Z,15.47
2017-11-19T12:32:50.087Z,11.83
2017-11-19T12:35:20.154Z,11.83
2017-11-19T12:37:50.981Z,10.77
2017-11-19T12:40:20.781Z,11.73
2017-11-19T12:42:50.302Z,8.13
2017-11-19T12:45:20.367Z,7.33
2017-11-19T12:47:50.501Z,12.03
2017-11-19T12:50:20.649Z,11.60
2017-11-19T12:52:50.724Z,9.23
2017-11-19T12:55:20.708Z,10.83
2017-11-19T12:57:51.226Z,10.57
2017-11-19T13:00:20.824Z,7.70
2017-11-19T13:02:50.797Z,8.63
2017-11-19T13:05:20.810Z,8.40
2017-11-19T13:07:50.868Z,10.67
2017-11-19T13:10:21.397Z,14.50
2017-11-19T13:12:51.023Z,10.77
2017-11-19T13:15:20.990Z,6.37
2017-11-19T13:17:51.111Z,8.60
2017-11-19T13:20:21.279Z,10.50
2017-11-19T13:22:51.079Z,12.50
2017-11-19T13:25:21.276Z,11.43
2017-11-19T13:27:51.217Z,11.10
2017-11-19T13:30:21.308Z,9.47
2017-11-19T13:32:51.210Z,8.03
2017-11-19T13:35:21.287Z,8.50
2017-11-19T13:37:51.241Z,10.13
2017-11-19T13:40:22.828Z,11.97
2017-11-19T13:42:52.392Z,11.07
2017-11-19T13:45:21.972Z,9.40
2017-11-19T13:47:51.556Z,5.93
2017-11-19T13:50:21.745Z,6.83
2017-11-19T13:52:51.663Z,13.80
2017-11-19T13:55:21.818Z,8.97
2017-11-19T13:57:51.673Z,8.67
2017-11-19T14:00:22.835Z,8.73
2017-11-19T14:02:52.485Z,9.30
2017-11-19T14:05:22.301Z,9.70
2017-11-19T14:07:51.888Z,11.03
2017-11-19T14:10:21.992Z,15.83
2017-11-19T14:12:51.967Z,10.33
2017-11-19T14:15:21.965Z,9.70
2017-11-19T14:17:52.074Z,7.57
2017-11-19T14:20:22.511Z,9.60
2017-11-19T14:22:52.115Z,10.67
2017-11-19T14:25:22.327Z,7.53
2017-11-19T14:27:52.205Z,11.30
2017-11-19T14:30:22.376Z,12.23
2017-11-19T14:32:52.577Z,12.10
2017-11-19T14:35:22.467Z,11.83
2017-11-19T14:37:52.536Z,16.83
2017-11-19T14:40:22.681Z,16.30
2017-11-19T14:42:52.609Z,14.23
2017-11-19T14:45:22.672Z,10.27
2017-11-19T14:47:52.787Z,10.67
2017-11-19T14:50:22.875Z,9.00
2017-11-19T14:52:53.068Z,12.47
2017-11-19T14:55:22.917Z,12.20
2017-11-19T14:57:53.057Z,12.33
2017-11-19T15:00:23.307Z,13.33
2017-11-19T15:02:53.301Z,18.43
2017-11-19T15:05:23.087Z,16.43
2017-11-19T15:07:53.158Z,12.97
2017-11-19T15:10:23.233Z,17.77
2017-11-19T15:12:53.256Z,19.63
2017-11-19T15:15:23.345Z,15.33
2017-11-19T15:17:53.284Z,10.53
2017-11-19T15:20:23.285Z,12.00
2017-11-19T15:22:53.390Z,11.83
2017-11-19T15:25:23.552Z,8.67
2017-11-19T15:27:53.656Z,11.93
2017-11-19T15:30:23.729Z,15.73
2017-11-19T15:32:53.769Z,14.80
2017-11-19T15:35:23.816Z,11.57
2017-11-19T15:37:53.873Z,16.40
2017-11-19T15:40:23.952Z,20.87
2017-11-19T15:42:53.968Z,17.70
2017-11-19T15:45:23.976Z,16.73
2017-11-19T15:47:54.155Z,29.97
2017-11-19T15:50:24.144Z,21.97
2017-11-19T15:52:54.210Z,18.40
2017-11-19T15:55:25.144Z,28.73
2017-11-19T15:57:54.689Z,36.60
2017-11-19T16:00:24.476Z,25.00
2017-11-19T16:02:54.519Z,22.77
2017-11-19T16:05:24.607Z,24.43
2017-11-19T16:07:54.618Z,22.07
2017-11-19T16:10:24.970Z,18.87
2017-11-19T16:12:54.671Z,13.00
2017-11-19T16:15:24.754Z,15.00
2017-11-19T16:17:55.007Z,19.03
2017-11-19T16:20:25.023Z,17.43
2017-11-19T16:22:55.152Z,23.70
2017-11-19T16:25:24.997Z,24.50
2017-11-19T16:27:55.071Z,19.97
2017-11-19T16:30:25.124Z,18.60
2017-11-19T16:32:54.988Z,23.20
2017-11-19T16:35:25.042Z,24.23
2017-11-19T16:37:55.150Z,26.83
2017-11-19T16:40:25.187Z,24.23
2017-11-19T16:42:55.318Z,24.97
2017-11-19T16:45:25.328Z,26.50
2017-11-19T16:47:55.319Z,25.13
2017-11-19T16:50:25.361Z,27.50
2017-11-19T16:52:55.484Z,22.80
2017-11-19T16:55:25.578Z,29.27
2017-11-19T16:57:55.652Z,23.93
2017-11-19T17:00:25.723Z,22.83
2017-11-19T17:02:55.646Z,25.83
2017-11-19T17:05:25.675Z,21.30
2017-11-19T17:07:55.944Z,21.70
2017-11-19T17:10:25.892Z,23.63
2017-11-19T17:12:55.839Z,21.77
2017-11-19T17:15:25.914Z,28.40
2017-11-19T17:17:55.977Z,29.27
2017-11-19T17:20:26.064Z,27.73
2017-11-19T17:22:56.091Z,25.47
2017-11-19T17:25:26.206Z,24.90
2017-11-19T17:27:56.297Z,21.17
2017-11-19T17:30:26.283Z,20.13
2017-11-19T17:32:56.357Z,26.30
2017-11-19T17:35:26.447Z,23.53
2017-11-19T17:37:56.780Z,20.43
2017-11-19T17:40:26.622Z,20.67
2017-11-19T17:42:56.637Z,15.47
2017-11-19T17:45:26.665Z,20.37
2017-11-19T17:47:56.789Z,16.10
2017-11-19T17:50:26.872Z,21.17
2017-11-19T17:52:56.880Z,22.57
2017-11-19T17:55:27.048Z,17.13
2017-11-19T17:57:57.059Z,13.60
2017-11-19T18:00:27.175Z,20.23
2017-11-19T18:02:57.300Z,21.37
2017-11-19T18:05:27.320Z,21.60
2017-11-19T18:07:58.338Z,16.23
2017-11-19T18:10:27.904Z,20.70
2017-11-19T18:12:57.557Z,14.30
2017-11-19T18:15:27.568Z,18.10
2017-11-19T18:17:57.700Z,15.67
2017-11-19T18:20:27.655Z,25.60
2017-11-19T18:22:57.750Z,20.00
2017-11-19T18:25:27.751Z,19.00
2017-11-19T18:27:57.847Z,13.53
2017-11-19T18:30:27.890Z,13.03
2017-11-19T18:32:57.883Z,20.83
2017-11-19T18:35:28.015Z,16.77
2017-11-19T18:37:57.969Z,11.10
2017-11-19T18:40:28.051Z,12.77
2017-11-19T18:42:58.205Z,20.17
2017-11-19T18:45:28.247Z,16.77
2017-11-19T18:47:58.344Z,20.17
2017-11-19T18:50:28.339Z,18.80
2017-11-19T18:52:58.483Z,15.00
2017-11-19T18:55:28.555Z,19.53
2017-11-19T18:57:58.648Z,15.43
2017-11-19T19:00:28.850Z,21.23
2017-11-19T19:02:58.858Z,17.60
2017-11-19T19:05:28.946Z,19.20
2017-11-19T19:07:58.899Z,20.57
2017-11-19T19:10:29.095Z,15.67
2017-11-19T19:12:59.003Z,14.53
2017-11-19T19:15:29.137Z,18.40
2017-11-19T19:17:59.295Z,20.93
2017-11-19T19:20:29.308Z,13.67
2017-11-19T19:22:59.689Z,15.07
2017-11-19T19:25:29.503Z,10.97
2017-11-19T19:27:59.531Z,11.47
2017-11-19T19:30:29.556Z,13.73
2017-11-19T19:32:59.580Z,11.90
2017-11-19T19:35:29.825Z,11.30
2017-11-19T19:37:59.687Z,15.93
2017-11-19T19:40:29.833Z,15.73
2017-11-19T19:42:59.912Z,16.03
2017-11-19T19:45:29.969Z,10.30
2017-11-19T19:48:00.104Z,9.97
2017-11-19T19:50:30.091Z,15.17
2017-11-19T19:53:00.212Z,13.03
2017-11-19T19:55:30.239Z,10.00
2017-11-19T19:58:00.377Z,15.00
2017-11-19T20:00:30.372Z,11.37
2017-11-19T20:03:00.422Z,10.10
2017-11-19T20:05:30.450Z,12.63
2017-11-19T20:08:00.508Z,9.13
2017-11-19T20:10:30.636Z,26.07
2017-11-19T20:13:00.651Z,14.00
2017-11-19T20:15:30.794Z,11.10
2017-11-19T20:18:00.893Z,7.10
2017-11-19T20:20:30.978Z,14.47
2017-11-19T20:23:00.957Z,9.67
2017-11-19T20:25:31.043Z,11.40
2017-11-19T20:28:01.160Z,13.43
2017-11-19T20:30:31.126Z,8.77
2017-11-19T20:33:01.109Z,17.07
2017-11-19T20:35:31.240Z,11.57
2017-11-19T20:38:01.267Z,12.33
2017-11-19T20:40:31.403Z,15.27
2017-11-19T20:43:02.115Z,11.10
2017-11-19T20:45:32.396Z,10.20
2017-11-19T20:48:01.945Z,10.23
2017-11-19T20:50:31.478Z,14.37
2017-11-19T20:53:01.703Z,12.63
2017-11-19T20:55:31.684Z,11.87
2017-11-19T20:58:01.703Z,12.47
2017-11-19T21:00:31.787Z,9.53
2017-11-19T21:03:01.844Z,7.00
2017-11-19T21:05:31.819Z,8.30
2017-11-19T21:08:01.888Z,10.03
2017-11-19T21:10:31.963Z,11.17
2017-11-19T21:13:02.052Z,16.30
2017-11-19T21:15:32.107Z,11.33
2017-11-19T21:18:02.401Z,7.43
2017-11-19T21:20:33.300Z,9.90
2017-11-19T21:23:02.839Z,9.07
2017-11-19T21:25:32.916Z,6.17
2017-11-19T21:28:02.956Z,11.47
2017-11-19T21:30:32.872Z,15.03
2017-11-19T21:33:03.001Z,12.67
2017-11-19T21:35:33.142Z,10.70
2017-11-19T21:38:03.449Z,11.43
2017-11-19T21:40:33.598Z,9.17
2017-11-19T21:43:03.582Z,12.23
2017-11-19T21:45:33.704Z,10.40
2017-11-19T21:48:03.589Z,14.13
2017-11-19T21:50:33.734Z,19.40
2017-11-19T21:53:03.835Z,15.47
2017-11-19T21:55:33.971Z,17.30
2017-11-19T21:58:04.325Z,14.47
2017-11-19T22:00:34.267Z,14.33
2017-11-19T22:03:04.697Z,11.20
2017-11-19T22:05:34.778Z,14.57
2017-11-19T22:08:05.220Z,11.93
2017-11-19T22:10:35.064Z,11.47
2017-11-19T22:13:04.879Z,12.83
2017-11-19T22:15:35.215Z,10.77
2017-11-19T22:18:05.043Z,13.57
2017-11-19T22:20:35.397Z,9.43
2017-11-19T22:23:05.207Z,10.37
2017-11-19T22:25:34.987Z,13.00
2017-11-19T22:28:05.037Z,13.03
2017-11-19T22:30:35.075Z,9.20
2017-11-19T22:33:05.146Z,13.93
2017-11-19T22:35:35.189Z,12.33
2017-11-19T22:38:05.762Z,9.87
2017-11-19T22:40:35.707Z,13.30
2017-11-19T22:43:08.503Z,14.17
2017-11-19T22:45:40.049Z,14.00
2017-11-19T22:48:10.991Z,10.53
2017-11-19T22:50:41.627Z,12.43
2017-11-19T22:53:11.452Z,11.30
2017-11-19T22:55:42.130Z,7.87
2017-11-19T22:58:12.100Z,10.83
2017-11-19T23:00:42.026Z,12.07
2017-11-19T23:03:11.573Z,10.60
2017-11-19T23:05:41.139Z,13.60
2017-11-19T23:08:10.767Z,10.67
2017-11-19T23:10:41.014Z,10.03
2017-11-19T23:13:10.816Z,12.43
2017-11-19T23:15:40.880Z,9.20
2017-11-19T23:18:10.927Z,13.57
2017-11-19T23:20:41.031Z,10.33
2017-11-19T23:23:11.152Z,12.50
2017-11-19T23:25:41.174Z,7.97
2017-11-19T23:28:11.134Z,19.40
2017-11-19T23:30:41.025Z,10.23
2017-11-19T23:33:11.348Z,9.20
2017-11-19T23:35:41.260Z,17.00
2017-11-19T23:38:11.247Z,12.10
2017-11-19T23:40:41.190Z,11.20
2017-11-19T23:43:11.385Z,14.03
2017-11-19T23:45:41.403Z,14.53
2017-11-19T23:48:11.424Z,9.27
2017-11-19T23:50:41.542Z,11.47
2017-11-19T23:53:11.439Z,7.70
2017-11-19T23:55:41.460Z,10.67
2017-11-19T23:58:11.714Z,10.37
